Time;durP1;ratioP1;P1;durP2;ratioP2;P2;SDS_P1;SDS_P2;PMS_P1;PMS_P2;Temp;Humidity;BMP_temperature;BMP_pressure;BME280_temperature;BME280_humidity;BME280_pressure;Samples;Min_cycle;Max_cycle;Signal;HPM_P1;HPM_P2
2022/08/16 05:46:05;;;;;;;38.88;18.17;;;;;;;;;;6684675;22;20392;-56
2022/08/16 05:49:06;;;;;;;45.50;18.90;;;;;;;;;;6223360;28;20513;-57
2022/08/16 05:52:08;;;;;;;41.27;17.47;;;;;;;;;;6234512;28;20037;-59
2022/08/16 05:55:09;;;;;;;39.50;17.58;;;;;;;;;;6235796;28;20124;-59
2022/08/16 05:58:10;;;;;;;42.43;18.77;;;;;;;;;;6235147;28;20484;-59
2022/08/16 06:01:10;;;;;;;43.47;20.47;;;;;;;;;;6238328;28;20495;-60
2022/08/16 06:04:13;;;;;;;39.40;20.03;;;;;;;;;;6237689;28;20049;-59
2022/08/16 06:07:13;;;;;;;35.53;18.15;;;;;;;;;;6236799;28;20133;-58
2022/08/16 06:10:14;;;;;;;39.43;19.10;;;;;;;;;;6234862;28;20419;-60
2022/08/16 06:13:15;;;;;;;39.75;19.25;;;;;;;;;;6236495;28;20559;-58
2022/08/16 06:16:15;;;;;;;36.17;18.00;;;;;;;;;;6234189;28;20104;-61
2022/08/16 06:19:17;;;;;;;32.53;16.90;;;;;;;;;;6228586;28;20049;-61
2022/08/16 06:22:17;;;;;;;38.87;17.73;;;;;;;;;;6229138;28;20049;-59
2022/08/16 06:25:18;;;;;;;38.07;17.67;;;;;;;;;;6228234;28;20069;-56
2022/08/16 06:28:19;;;;;;;35.70;18.17;;;;;;;;;;6229537;28;20519;-57
2022/08/16 06:31:20;;;;;;;33.20;18.23;;;;;;;;;;6225854;28;21079;-55
2022/08/16 06:34:20;;;;;;;35.00;17.93;;;;;;;;;;6227209;28;20050;-54
2022/08/16 06:37:21;;;;;;;35.13;17.87;;;;;;;;;;6225624;28;20053;-52
2022/08/16 06:40:23;;;;;;;34.87;17.80;;;;;;;;;;6230933;28;20395;-53
2022/08/16 06:43:24;;;;;;;31.45;16.70;;;;;;;;;;6227676;28;20496;-50
2022/08/16 06:46:33;;;;;;;31.40;16.37;;;;;;;;;;6230583;28;20057;-56
2022/08/16 06:49:33;;;;;;;27.08;14.73;;;;;;;;;;6233811;28;20061;-53
2022/08/16 06:52:35;;;;;;;27.43;15.23;;;;;;;;;;6236906;28;20960;-54
2022/08/16 06:55:35;;;;;;;30.63;15.80;;;;;;;;;;6226473;28;20047;-56
2022/08/16 06:58:36;;;;;;;29.80;16.07;;;;;;;;;;6221617;28;20053;-54
2022/08/16 07:01:36;;;;;;;31.87;16.17;;;;;;;;;;6219273;28;20076;-57
2022/08/16 07:04:39;;;;;;;27.73;16.00;;;;;;;;;;6220517;28;20115;-54
2022/08/16 07:07:41;;;;;;;30.77;16.23;;;;;;;;;;6218558;28;20095;-54
2022/08/16 07:10:41;;;;;;;33.05;16.42;;;;;;;;;;6219211;28;20392;-56
2022/08/16 07:13:43;;;;;;;31.57;16.03;;;;;;;;;;6221901;28;20081;-54
2022/08/16 07:16:43;;;;;;;31.80;16.67;;;;;;;;;;6219957;28;20042;-54
2022/08/16 07:19:44;;;;;;;32.37;15.93;;;;;;;;;;6218795;28;20048;-53
2022/08/16 07:22:45;;;;;;;31.00;14.93;;;;;;;;;;6218073;28;20045;-54
2022/08/16 07:25:46;;;;;;;28.40;15.23;;;;;;;;;;6219003;28;20049;-52
2022/08/16 07:28:46;;;;;;;29.07;15.87;;;;;;;;;;6219279;28;20044;-57
2022/08/16 07:31:47;;;;;;;27.73;14.43;;;;;;;;;;6222170;28;20196;-54
2022/08/16 07:34:47;;;;;;;30.30;16.27;;;;;;;;;;6220021;28;20583;-54
2022/08/16 07:37:48;;;;;;;27.73;15.43;;;;;;;;;;6216841;28;20427;-59
2022/08/16 07:40:49;;;;;;;29.73;16.03;;;;;;;;;;6219475;28;20099;-51
2022/08/16 07:43:49;;;;;;;26.37;15.73;;;;;;;;;;6218429;28;20050;-59
2022/08/16 07:46:50;;;;;;;29.67;15.87;;;;;;;;;;6218818;28;20057;-56
2022/08/16 07:49:50;;;;;;;28.00;15.47;;;;;;;;;;6220165;28;20053;-59
2022/08/16 07:52:51;;;;;;;32.67;15.93;;;;;;;;;;6219387;28;20045;-60
2022/08/16 07:55:52;;;;;;;33.37;16.73;;;;;;;;;;6220307;28;20844;-57
2022/08/16 07:58:53;;;;;;;30.33;17.23;;;;;;;;;;6218744;28;20412;-60
2022/08/16 08:01:54;;;;;;;29.77;16.75;;;;;;;;;;6219383;28;20045;-53
2022/08/16 08:04:55;;;;;;;31.27;16.63;;;;;;;;;;6220992;28;20842;-60
2022/08/16 08:07:56;;;;;;;33.22;17.13;;;;;;;;;;6236934;28;20465;-56
2022/08/16 08:10:57;;;;;;;32.45;15.95;;;;;;;;;;6232117;28;20041;-52
2022/08/16 08:13:59;;;;;;;32.47;18.05;;;;;;;;;;6239885;28;20492;-51
2022/08/16 08:17:00;;;;;;;33.38;17.75;;;;;;;;;;6240057;28;20592;-58
2022/08/16 08:20:01;;;;;;;33.50;17.17;;;;;;;;;;6222650;28;20851;-52
2022/08/16 08:23:02;;;;;;;30.00;16.75;;;;;;;;;;6218433;28;20049;-55
2022/08/16 08:26:03;;;;;;;31.40;16.57;;;;;;;;;;6217571;28;20443;-50
2022/08/16 08:29:04;;;;;;;32.30;18.30;;;;;;;;;;6232613;28;20507;-54
2022/08/16 08:32:06;;;;;;;36.00;17.47;;;;;;;;;;6240474;28;20037;-53
2022/08/16 08:35:07;;;;;;;31.08;16.15;;;;;;;;;;6240862;28;20037;-60
2022/08/16 08:38:08;;;;;;;32.20;17.30;;;;;;;;;;6239250;28;20048;-58
2022/08/16 08:41:09;;;;;;;34.88;17.77;;;;;;;;;;6240206;28;20045;-54
2022/08/16 08:44:10;;;;;;;30.93;17.03;;;;;;;;;;6231924;28;20482;-56
2022/08/16 08:47:11;;;;;;;;;;;;;;;;;;6221080;28;21028;-56
2022/08/16 08:50:15;;;;;;;31.97;15.97;;;;;;;;;;6221590;28;19925;-59
2022/08/16 08:53:16;;;;;;;31.02;17.75;;;;;;;;;;6227608;28;20052;-60
2022/08/16 08:56:17;;;;;;;30.80;17.73;;;;;;;;;;6229987;28;20057;-61
2022/08/16 08:59:18;;;;;;;36.20;17.40;;;;;;;;;;6232151;28;20382;-60
2022/08/16 09:02:19;;;;;;;34.38;19.42;;;;;;;;;;6218020;28;20152;-54
2022/08/16 09:05:21;;;;;;;32.07;16.47;;;;;;;;;;6217512;28;20050;-59
2022/08/16 09:08:23;;;;;;;30.70;16.27;;;;;;;;;;6218088;28;20085;-60
2022/08/16 09:11:24;;;;;;;;;;;;;;;;;;6218708;28;20053;-61
2022/08/16 09:14:25;;;;;;;33.90;16.77;;;;;;;;;;6230368;28;19944;-58
2022/08/16 09:17:27;;;;;;;33.60;16.52;;;;;;;;;;6237116;28;20087;-60
2022/08/16 09:20:29;;;;;;;29.65;16.65;;;;;;;;;;6239610;28;20045;-60
2022/08/16 09:23:30;;;;;;;28.45;15.88;;;;;;;;;;6237247;28;20053;-60
2022/08/16 09:26:31;;;;;;;28.83;16.27;;;;;;;;;;6239169;28;20132;-60
2022/08/16 09:29:31;;;;;;;31.13;16.03;;;;;;;;;;6239189;28;20033;-61
2022/08/16 09:32:32;;;;;;;29.20;16.20;;;;;;;;;;6226105;28;20053;-58
2022/08/16 09:35:35;;;;;;;29.27;16.43;;;;;;;;;;6234659;28;20468;-51
2022/08/16 09:38:38;;;;;;;31.38;16.70;;;;;;;;;;6234396;28;20223;-50
2022/08/16 09:41:39;;;;;;;29.60;16.95;;;;;;;;;;6238390;28;20136;-50
2022/08/16 09:44:40;;;;;;;29.65;16.13;;;;;;;;;;6233413;28;20188;-60
2022/08/16 09:47:41;;;;;;;;;;;;;;;;;;6224893;28;20068;-61
2022/08/16 09:50:43;;;;;;;34.50;17.30;;;;;;;;;;6219350;28;19931;-60
2022/08/16 09:53:44;;;;;;;34.60;17.90;;;;;;;;;;6216812;28;20049;-58
2022/08/16 09:56:45;;;;;;;34.05;18.77;;;;;;;;;;6215192;28;20034;-60
2022/08/16 09:59:46;;;;;;;34.60;18.60;;;;;;;;;;6215488;28;20530;-60
2022/08/16 10:02:47;;;;;;;37.92;18.15;;;;;;;;;;6218383;28;20099;-61
2022/08/16 10:05:49;;;;;;;37.00;18.37;;;;;;;;;;6230525;28;20483;-60
2022/08/16 10:08:50;;;;;;;35.50;18.90;;;;;;;;;;6237556;28;20498;-60
2022/08/16 10:15:12;;;;;;;32.30;18.65;;;;;;;;;;6235053;28;20521;-54
2022/08/16 10:18:13;;;;;;;34.78;17.77;;;;;;;;;;6216385;28;20500;-55
2022/08/16 10:21:14;;;;;;;34.85;18.42;;;;;;;;;;6216300;28;20095;-55
2022/08/16 10:24:15;;;;;;;35.38;18.58;;;;;;;;;;6225881;28;20045;-54
2022/08/16 10:27:16;;;;;;;40.95;19.92;;;;;;;;;;6238778;28;20133;-56
2022/08/16 10:30:17;;;;;;;41.42;20.70;;;;;;;;;;6239950;28;20531;-51
2022/08/16 10:33:18;;;;;;;39.05;20.98;;;;;;;;;;6243421;28;20046;-52
2022/08/16 10:36:19;;;;;;;37.03;20.20;;;;;;;;;;6222367;28;20049;-54
2022/08/16 10:39:19;;;;;;;38.22;19.08;;;;;;;;;;6218299;28;20053;-57
2022/08/16 10:42:21;;;;;;;37.13;19.03;;;;;;;;;;6219082;28;20502;-52
2022/08/16 10:45:22;;;;;;;34.45;18.67;;;;;;;;;;6221594;28;20080;-57
2022/08/16 10:48:22;;;;;;;38.60;19.48;;;;;;;;;;6235437;28;20057;-54
2022/08/16 10:51:23;;;;;;;36.33;19.23;;;;;;;;;;6242471;28;20046;-52
2022/08/16 10:54:24;;;;;;;36.63;19.63;;;;;;;;;;6243707;28;20049;-59
2022/08/16 10:57:27;;;;;;;34.63;18.13;;;;;;;;;;6227485;28;20057;-59
2022/08/16 11:00:28;;;;;;;33.33;17.98;;;;;;;;;;6220665;28;20042;-54
2022/08/16 11:03:29;;;;;;;37.83;19.58;;;;;;;;;;6219982;28;21022;-55
2022/08/16 11:06:29;;;;;;;36.87;18.80;;;;;;;;;;6218540;28;20041;-58
2022/08/16 11:09:31;;;;;;;40.92;20.08;;;;;;;;;;6219930;28;20053;-61
2022/08/16 11:12:31;;;;;;;42.05;20.27;;;;;;;;;;6220682;28;20052;-57
2022/08/16 11:15:33;;;;;;;40.97;20.17;;;;;;;;;;6222231;28;20046;-56
2022/08/16 11:18:34;;;;;;;41.72;20.67;;;;;;;;;;6226212;28;20605;-60
2022/08/16 11:21:36;;;;;;;38.03;19.73;;;;;;;;;;6221155;28;20893;-55
2022/08/16 11:24:39;;;;;;;36.55;19.92;;;;;;;;;;6220860;28;20046;-56
2022/08/16 11:27:40;;;;;;;41.63;19.80;;;;;;;;;;6223967;28;20045;-53
2022/08/16 11:30:41;;;;;;;43.40;22.00;;;;;;;;;;6220828;28;20038;-59
2022/08/16 11:33:41;;;;;;;41.33;20.30;;;;;;;;;;6221800;28;20447;-56
2022/08/16 11:36:42;;;;;;;41.35;21.27;;;;;;;;;;6220667;28;20042;-61
2022/08/16 11:39:43;;;;;;;41.10;20.63;;;;;;;;;;6217026;28;20069;-53
2022/08/16 11:42:43;;;;;;;39.17;20.90;;;;;;;;;;6218619;28;20050;-50
2022/08/16 11:45:46;;;;;;;39.63;21.10;;;;;;;;;;6222236;28;20064;-55
2022/08/16 11:48:49;;;;;;;45.17;20.77;;;;;;;;;;6216768;28;20050;-56
2022/08/16 11:51:50;;;;;;;41.47;22.23;;;;;;;;;;6220001;28;20461;-60
2022/08/16 11:54:50;;;;;;;39.05;20.70;;;;;;;;;;6217784;28;20045;-58
2022/08/16 11:57:51;;;;;;;40.28;20.80;;;;;;;;;;6222472;28;20054;-58
2022/08/16 12:00:54;;;;;;;43.20;21.07;;;;;;;;;;6214034;28;20430;-56
2022/08/16 12:03:55;;;;;;;40.25;20.10;;;;;;;;;;6222863;28;20305;-58
2022/08/16 12:06:56;;;;;;;;;;;;;;;;;;6221601;28;20045;-56
2022/08/16 12:09:57;;;;;;;40.47;20.25;;;;;;;;;;6216859;28;19931;-55
2022/08/16 12:12:57;;;;;;;44.37;21.90;;;;;;;;;;6221361;28;20100;-58
2022/08/16 12:15:58;;;;;;;39.00;21.27;;;;;;;;;;6219663;28;20457;-59
2022/08/16 12:18:58;;;;;;;45.70;23.07;;;;;;;;;;6221207;28;20060;-58
2022/08/16 12:21:59;;;;;;;48.60;21.80;;;;;;;;;;6224817;28;20147;-58
2022/08/16 12:25:00;;;;;;;45.50;21.90;;;;;;;;;;6228544;28;20069;-57
2022/08/16 12:28:04;;;;;;;42.72;22.02;;;;;;;;;;6227173;28;20149;-58
2022/08/16 12:31:04;;;;;;;44.58;21.67;;;;;;;;;;6223377;28;20570;-56
2022/08/16 12:34:06;;;;;;;41.00;21.38;;;;;;;;;;6227682;28;20069;-53
2022/08/16 12:37:06;;;;;;;43.60;21.52;;;;;;;;;;6227257;28;20572;-55
2022/08/16 12:40:09;;;;;;;40.47;19.80;;;;;;;;;;6225472;28;20049;-55
2022/08/16 12:43:12;;;;;;;42.25;19.73;;;;;;;;;;6227668;28;20107;-57
2022/08/16 12:46:13;;;;;;;39.67;19.88;;;;;;;;;;6227308;28;20045;-55
2022/08/16 12:49:13;;;;;;;36.93;18.33;;;;;;;;;;6221878;28;20061;-58
2022/08/16 12:52:14;;;;;;;35.65;18.40;;;;;;;;;;6222304;28;20314;-55
2022/08/16 12:55:15;;;;;;;34.17;17.53;;;;;;;;;;6226110;28;20107;-53
2022/08/16 12:58:17;;;;;;;32.08;17.42;;;;;;;;;;6224945;28;20045;-57
2022/08/16 13:01:28;;;;;;;32.35;17.42;;;;;;;;;;6223987;28;20218;-59
2022/08/16 13:04:31;;;;;;;40.88;20.27;;;;;;;;;;6227327;28;20065;-58
2022/08/16 13:07:32;;;;;;;34.47;19.08;;;;;;;;;;6227522;28;20633;-58
2022/08/16 13:10:36;;;;;;;37.40;19.33;;;;;;;;;;6224518;28;20106;-60
2022/08/16 13:13:36;;;;;;;36.65;18.40;;;;;;;;;;6219509;28;20061;-57
2022/08/16 13:16:37;;;;;;;32.20;17.60;;;;;;;;;;6225858;28;20128;-59
2022/08/16 13:19:38;;;;;;;34.47;17.87;;;;;;;;;;6223597;28;20049;-56
2022/08/16 13:22:49;;;;;;;32.20;18.48;;;;;;;;;;6226993;28;20065;-58
2022/08/16 13:25:50;;;;;;;33.22;18.08;;;;;;;;;;6227777;28;20052;-56
2022/08/16 13:28:52;;;;;;;32.13;18.27;;;;;;;;;;6227216;28;20062;-56
2022/08/16 13:31:52;;;;;;;38.40;18.33;;;;;;;;;;6217708;28;20128;-59
2022/08/16 13:34:53;;;;;;;33.33;18.52;;;;;;;;;;6218300;28;20144;-56
2022/08/16 13:37:54;;;;;;;36.00;19.23;;;;;;;;;;6218638;28;20057;-55
2022/08/16 13:40:56;;;;;;;35.17;19.48;;;;;;;;;;6219205;28;20096;-59
2022/08/16 13:43:58;;;;;;;37.70;20.15;;;;;;;;;;6220382;28;21368;-58
2022/08/16 13:46:58;;;;;;;44.38;22.10;;;;;;;;;;6221126;28;20148;-57
2022/08/16 13:49:59;;;;;;;48.10;22.80;;;;;;;;;;6215628;28;20080;-57
2022/08/16 13:53:00;;;;;;;37.70;19.88;;;;;;;;;;6218467;28;20045;-59
2022/08/16 13:56:01;;;;;;;38.03;20.55;;;;;;;;;;6219145;28;20049;-58
2022/08/16 13:59:02;;;;;;;37.15;19.95;;;;;;;;;;6217254;28;20128;-59
2022/08/16 14:02:05;;;;;;;41.05;20.52;;;;;;;;;;6218048;28;20052;-58
2022/08/16 14:05:06;;;;;;;38.85;20.90;;;;;;;;;;6225440;28;20156;-50
2022/08/16 14:08:07;;;;;;;38.42;20.85;;;;;;;;;;6221771;28;20060;-58
2022/08/16 14:11:12;;;;;;;34.47;19.58;;;;;;;;;;6222013;28;20507;-59
2022/08/16 14:14:13;;;;;;;39.65;21.58;;;;;;;;;;6223739;28;20056;-60
2022/08/16 14:17:14;;;;;;;37.25;20.52;;;;;;;;;;6221453;28;20058;-53
2022/08/16 14:20:14;;;;;;;40.72;20.85;;;;;;;;;;6221023;28;20084;-55
2022/08/16 14:23:15;;;;;;;40.65;21.08;;;;;;;;;;6222540;28;20049;-53
2022/08/16 14:26:17;;;;;;;38.58;20.98;;;;;;;;;;6222083;28;20108;-53
2022/08/16 14:29:17;;;;;;;39.70;20.55;;;;;;;;;;6224815;28;20650;-50
2022/08/16 14:32:20;;;;;;;39.60;20.37;;;;;;;;;;6222358;28;20050;-56
2022/08/16 14:35:25;;;;;;;33.88;18.65;;;;;;;;;;6222560;28;20310;-57
2022/08/16 14:38:26;;;;;;;36.75;20.33;;;;;;;;;;6222982;28;20084;-57
2022/08/16 14:41:27;;;;;;;33.05;19.35;;;;;;;;;;6226408;28;20548;-54
2022/08/16 14:44:28;;;;;;;36.25;20.15;;;;;;;;;;6227899;28;20048;-59
2022/08/16 14:47:28;;;;;;;39.80;20.33;;;;;;;;;;6230573;28;20053;-59
2022/08/16 14:50:29;;;;;;;34.20;18.30;;;;;;;;;;6225534;28;20145;-56
2022/08/16 14:53:29;;;;;;;35.65;18.80;;;;;;;;;;6219828;28;20310;-54
2022/08/16 14:56:30;;;;;;;37.40;19.33;;;;;;;;;;6221281;28;20053;-56
2022/08/16 14:59:31;;;;;;;32.50;19.42;;;;;;;;;;6218680;28;20601;-53
2022/08/16 15:02:32;;;;;;;34.00;19.85;;;;;;;;;;6218571;28;20054;-54
2022/08/16 15:05:33;;;;;;;33.58;19.67;;;;;;;;;;6220631;28;20119;-55
2022/08/16 15:08:33;;;;;;;26.05;15.55;;;;;;;;;;6221444;28;20050;-55
2022/08/16 15:11:34;;;;;;;30.30;18.08;;;;;;;;;;6221178;28;20103;-53
2022/08/16 15:14:37;;;;;;;33.85;18.52;;;;;;;;;;6219688;28;20053;-53
2022/08/16 15:17:40;;;;;;;33.75;18.88;;;;;;;;;;6219461;28;20099;-57
2022/08/16 15:20:42;;;;;;;29.17;16.52;;;;;;;;;;6214383;28;20045;-55
2022/08/16 15:23:42;;;;;;;28.17;17.73;;;;;;;;;;6221073;28;20057;-52
2022/08/16 15:26:43;;;;;;;37.08;19.38;;;;;;;;;;6230180;28;20053;-54
2022/08/16 15:29:43;;;;;;;33.45;18.65;;;;;;;;;;6228661;28;20033;-59
2022/08/16 15:32:44;;;;;;;33.85;17.73;;;;;;;;;;6224405;28;20046;-57
2022/08/16 15:35:48;;;;;;;36.25;18.67;;;;;;;;;;6228874;28;20500;-59
2022/08/16 15:38:52;;;;;;;32.05;18.30;;;;;;;;;;6228066;28;20053;-59
2022/08/16 15:41:57;;;;;;;34.08;18.33;;;;;;;;;;6228022;28;20574;-53
2022/08/16 15:44:58;;;;;;;31.85;18.52;;;;;;;;;;6229673;28;20522;-54
2022/08/16 15:47:58;;;;;;;35.97;19.05;;;;;;;;;;6229880;28;20168;-58
2022/08/16 15:51:05;;;;;;;32.53;18.87;;;;;;;;;;6227408;28;20103;-57
2022/08/16 15:54:06;;;;;;;30.33;18.40;;;;;;;;;;6228585;28;20045;-59
2022/08/16 15:57:07;;;;;;;27.17;16.63;;;;;;;;;;6228412;28;20064;-56
2022/08/16 16:00:08;;;;;;;26.58;16.38;;;;;;;;;;6226946;28;20042;-59
2022/08/16 16:03:10;;;;;;;;;;;;;;;;;;6229105;28;20061;-58
2022/08/16 16:06:11;;;;;;;28.60;16.25;;;;;;;;;;6229974;28;19931;-57
2022/08/16 16:09:11;;;;;;;29.48;16.70;;;;;;;;;;6226789;28;20476;-59
2022/08/16 16:12:12;;;;;;;29.38;16.40;;;;;;;;;;6228700;28;20065;-58
2022/08/16 16:15:19;;;;;;;28.35;16.20;;;;;;;;;;6228298;28;20043;-55
2022/08/16 16:18:20;;;;;;;36.92;17.65;;;;;;;;;;6229912;28;20579;-59
2022/08/16 16:21:20;;;;;;;32.60;17.67;;;;;;;;;;6227044;28;20153;-59
2022/08/16 16:24:21;;;;;;;32.72;17.27;;;;;;;;;;6229178;28;20211;-60
2022/08/16 16:27:22;;;;;;;30.88;17.75;;;;;;;;;;6228318;28;20049;-56
2022/08/16 16:30:23;;;;;;;30.05;17.77;;;;;;;;;;6226145;28;20041;-59
2022/08/16 16:33:27;;;;;;;33.47;18.08;;;;;;;;;;6228085;28;20041;-58
2022/08/16 16:36:33;;;;;;;43.08;19.02;;;;;;;;;;6228640;28;20069;-53
2022/08/16 16:39:34;;;;;;;39.50;18.38;;;;;;;;;;6228645;28;20531;-52
2022/08/16 16:42:36;;;;;;;32.53;18.30;;;;;;;;;;6228060;28;20146;-49
2022/08/16 16:45:37;;;;;;;34.28;18.10;;;;;;;;;;6228878;28;20084;-51
2022/08/16 16:48:38;;;;;;;;;;;;;;;;;;6230142;28;20140;-57
2022/08/16 16:51:39;;;;;;;31.33;17.13;;;;;;;;;;6226772;28;19940;-52
2022/08/16 16:54:40;;;;;;;;;;;;;;;;;;6229703;28;20543;-56
2022/08/16 17:01:01;;;;;;;42.40;19.75;;;;;;;;;;6226013;28;20385;-57
2022/08/16 17:04:05;;;;;;;31.35;18.65;;;;;;;;;;6230221;28;20057;-57
2022/08/16 17:07:06;;;;;;;32.47;17.48;;;;;;;;;;6231077;28;20056;-55
2022/08/16 17:10:08;;;;;;;34.37;18.20;;;;;;;;;;6226672;28;20085;-58
2022/08/16 17:13:08;;;;;;;31.85;18.02;;;;;;;;;;6223305;28;20103;-58
2022/08/16 17:16:09;;;;;;;28.70;18.27;;;;;;;;;;6223426;28;20053;-60
2022/08/16 17:19:10;;;;;;;41.75;18.88;;;;;;;;;;6221248;28;20056;-59
2022/08/16 17:22:14;;;;;;;31.03;17.60;;;;;;;;;;6225510;28;20480;-58
2022/08/16 17:25:15;;;;;;;32.78;17.58;;;;;;;;;;6225968;28;20519;-57
2022/08/16 17:28:16;;;;;;;30.93;18.03;;;;;;;;;;6229294;28;20072;-56
2022/08/16 17:31:17;;;;;;;32.92;18.58;;;;;;;;;;6225767;28;20049;-56
2022/08/16 17:34:19;;;;;;;35.58;18.02;;;;;;;;;;6223562;28;20531;-53
2022/08/16 17:37:21;;;;;;;31.27;18.27;;;;;;;;;;6222267;28;20047;-53
2022/08/16 17:40:24;;;;;;;30.38;18.13;;;;;;;;;;6222613;28;20594;-58
2022/08/16 17:43:34;;;;;;;32.63;18.10;;;;;;;;;;6221759;28;20367;-58
2022/08/16 17:46:34;;;;;;;33.65;17.33;;;;;;;;;;6217013;28;20189;-58
2022/08/16 17:49:35;;;;;;;38.58;17.95;;;;;;;;;;6200130;28;20185;-58
2022/08/16 17:52:36;;;;;;;38.42;20.40;;;;;;;;;;6202644;28;20050;-60
2022/08/16 17:55:40;;;;;;;33.67;18.67;;;;;;;;;;6199890;28;20590;-58
2022/08/16 17:58:41;;;;;;;38.67;19.77;;;;;;;;;;6204087;28;20057;-59
2022/08/16 18:01:41;;;;;;;40.88;20.08;;;;;;;;;;6196883;28;20034;-60
2022/08/16 18:04:42;;;;;;;35.30;18.70;;;;;;;;;;6199804;28;20444;-59
2022/08/16 18:07:43;;;;;;;40.55;21.23;;;;;;;;;;6202724;28;20480;-59
2022/08/16 18:10:44;;;;;;;34.15;18.25;;;;;;;;;;6199732;28;20430;-57
2022/08/16 18:13:46;;;;;;;35.72;19.33;;;;;;;;;;6197659;28;20501;-59
2022/08/16 18:16:48;;;;;;;38.38;19.67;;;;;;;;;;6200451;28;20054;-58
2022/08/16 18:19:48;;;;;;;34.78;19.45;;;;;;;;;;6200901;28;20061;-59
2022/08/16 18:22:49;;;;;;;36.93;19.50;;;;;;;;;;6199892;28;20074;-58
2022/08/16 18:25:54;;;;;;;43.45;23.10;;;;;;;;;;6198441;28;20046;-60
2022/08/16 18:28:54;;;;;;;50.90;25.42;;;;;;;;;;6202810;28;20073;-59
2022/08/16 18:31:55;;;;;;;39.25;20.65;;;;;;;;;;6201828;28;20519;-60
2022/08/16 18:34:56;;;;;;;39.77;22.63;;;;;;;;;;6198626;28;20136;-57
2022/08/16 18:37:57;;;;;;;42.42;21.45;;;;;;;;;;6198158;28;20134;-60
2022/08/16 18:40:58;;;;;;;40.28;21.65;;;;;;;;;;6199154;28;20173;-60
2022/08/16 18:43:59;;;;;;;;;;;;;;;;;;6198571;28;20041;-57
2022/08/16 18:47:00;;;;;;;47.67;22.87;;;;;;;;;;6204165;28;19936;-60
2022/08/16 18:50:01;;;;;;;46.92;23.25;;;;;;;;;;6223021;28;20908;-58
2022/08/16 18:53:05;;;;;;;55.05;24.67;;;;;;;;;;6223854;28;20049;-59
2022/08/16 18:56:06;;;;;;;39.70;22.88;;;;;;;;;;6226439;28;21204;-57
2022/08/16 18:59:07;;;;;;;43.87;23.90;;;;;;;;;;6223979;28;20057;-58
2022/08/16 19:02:08;;;;;;;50.05;25.52;;;;;;;;;;6225318;28;20447;-60
2022/08/16 19:05:11;;;;;;;52.95;26.38;;;;;;;;;;6228915;28;20053;-61
2022/08/16 19:08:13;;;;;;;50.08;26.20;;;;;;;;;;6228704;28;20042;-60
2022/08/16 19:11:17;;;;;;;;;;;;;;;;;;6227813;28;20102;-59
2022/08/16 19:14:20;;;;;;;47.15;25.35;;;;;;;;;;6223423;28;19925;-57
2022/08/16 19:17:21;;;;;;;54.30;27.25;;;;;;;;;;6229219;28;20144;-60
2022/08/16 19:20:24;;;;;;;49.45;26.75;;;;;;;;;;6224579;28;20064;-60
2022/08/16 19:23:27;;;;;;;48.30;26.15;;;;;;;;;;6224790;28;20060;-57
2022/08/16 19:26:28;;;;;;;52.13;25.05;;;;;;;;;;6228027;28;20095;-57
2022/08/16 19:29:29;;;;;;;52.87;27.47;;;;;;;;;;6227420;28;20057;-60
2022/08/16 19:32:30;;;;;;;49.97;27.05;;;;;;;;;;6226938;28;20064;-59
2022/08/16 19:35:30;;;;;;;51.80;26.93;;;;;;;;;;6226831;28;20053;-59
2022/08/16 19:38:32;;;;;;;51.92;25.85;;;;;;;;;;6225991;28;20064;-59
2022/08/16 19:41:38;;;;;;;49.17;27.03;;;;;;;;;;6226993;28;20049;-59
2022/08/16 19:44:41;;;;;;;52.85;27.00;;;;;;;;;;6224560;28;20054;-59
2022/08/16 19:47:41;;;;;;;53.53;26.60;;;;;;;;;;6226607;28;20083;-55
2022/08/16 19:50:42;;;;;;;49.37;26.83;;;;;;;;;;6226818;28;20042;-54
2022/08/16 19:53:43;;;;;;;48.73;27.97;;;;;;;;;;6227379;28;20395;-58
2022/08/16 19:56:43;;;;;;;48.73;27.23;;;;;;;;;;6226581;28;20084;-57
2022/08/16 19:59:44;;;;;;;54.60;27.97;;;;;;;;;;6227621;28;20299;-55
2022/08/16 20:02:49;;;;;;;51.92;26.65;;;;;;;;;;6225953;28;20125;-59
2022/08/16 20:05:50;;;;;;;51.35;26.42;;;;;;;;;;6227016;28;20104;-55
2022/08/16 20:08:51;;;;;;;;;;;;;;;;;;6228776;28;20045;-55
2022/08/16 20:11:52;;;;;;;47.67;28.00;;;;;;;;;;6226877;28;19932;-56
2022/08/16 20:14:53;;;;;;;52.13;28.17;;;;;;;;;;6225424;28;20053;-59
2022/08/16 20:17:55;;;;;;;62.33;30.33;;;;;;;;;;6228047;28;20052;-52
2022/08/16 20:20:56;;;;;;;60.17;30.67;;;;;;;;;;6226823;28;20049;-55
2022/08/16 20:23:57;;;;;;;61.77;31.77;;;;;;;;;;6226833;28;20099;-59
2022/08/16 20:26:57;;;;;;;61.78;31.73;;;;;;;;;;6226396;28;20049;-60
2022/08/16 20:29:58;;;;;;;63.20;31.07;;;;;;;;;;6227402;28;20045;-59
2022/08/16 20:32:59;;;;;;;61.50;30.70;;;;;;;;;;6226526;28;20389;-53
2022/08/16 20:35:59;;;;;;;56.93;30.20;;;;;;;;;;6225687;28;20764;-57
2022/08/16 20:39:03;;;;;;;55.20;29.57;;;;;;;;;;6224795;28;20168;-55
2022/08/16 20:42:04;;;;;;;58.10;29.40;;;;;;;;;;6227426;28;20499;-55
2022/08/16 20:45:06;;;;;;;53.95;29.50;;;;;;;;;;6226680;28;20049;-56
2022/08/16 20:48:07;;;;;;;55.13;30.02;;;;;;;;;;6233058;28;20053;-55
2022/08/16 20:51:09;;;;;;;54.57;29.73;;;;;;;;;;6235484;28;20058;-55
2022/08/16 20:54:10;;;;;;;56.70;30.58;;;;;;;;;;6232580;28;20060;-55
2022/08/16 20:57:13;;;;;;;56.17;28.47;;;;;;;;;;6238385;28;20392;-53
2022/08/16 21:00:15;;;;;;;55.53;28.65;;;;;;;;;;6234927;28;20111;-52
2022/08/16 21:03:15;;;;;;;53.08;29.05;;;;;;;;;;6235725;28;20103;-54
2022/08/16 21:06:16;;;;;;;50.83;27.70;;;;;;;;;;6232473;28;20076;-56
2022/08/16 21:09:17;;;;;;;53.37;27.67;;;;;;;;;;6214384;28;20095;-57
2022/08/16 21:12:18;;;;;;;57.38;28.67;;;;;;;;;;6232660;28;20108;-52
2022/08/16 21:15:20;;;;;;;59.00;28.77;;;;;;;;;;6229623;28;20140;-51
2022/08/16 21:18:21;;;;;;;52.83;29.35;;;;;;;;;;6239442;28;20053;-57
2022/08/16 21:21:21;;;;;;;55.13;28.63;;;;;;;;;;6233679;28;20059;-51
2022/08/16 21:24:23;;;;;;;62.40;29.30;;;;;;;;;;6236535;28;20297;-57
2022/08/16 21:27:23;;;;;;;;;;;;;;;;;;6239993;28;20037;-58
2022/08/16 21:30:24;;;;;;;54.22;28.20;;;;;;;;;;6237587;28;19925;-53
2022/08/16 21:33:25;;;;;;;55.63;30.33;;;;;;;;;;6238695;28;20061;-56
2022/08/16 21:36:26;;;;;;;49.90;27.47;;;;;;;;;;6236406;28;20594;-49
2022/08/16 21:39:26;;;;;;;51.03;28.73;;;;;;;;;;6235631;28;20042;-57
2022/08/16 21:42:27;;;;;;;56.37;29.30;;;;;;;;;;6237756;28;20504;-57
2022/08/16 21:45:28;;;;;;;51.17;28.00;;;;;;;;;;6237655;28;20057;-60
2022/08/16 21:48:29;;;;;;;61.63;30.77;;;;;;;;;;6230233;28;20049;-51
2022/08/16 21:51:30;;;;;;;54.58;28.52;;;;;;;;;;6227170;28;20107;-51
2022/08/16 21:54:31;;;;;;;54.25;28.85;;;;;;;;;;6221466;28;20041;-51
2022/08/16 21:57:32;;;;;;;57.65;29.08;;;;;;;;;;6221548;28;20269;-51
2022/08/16 22:00:33;;;;;;;55.77;29.10;;;;;;;;;;6223214;28;20050;-53
2022/08/16 22:03:34;;;;;;;55.47;28.80;;;;;;;;;;6222728;28;20052;-52
2022/08/16 22:06:36;;;;;;;54.63;29.43;;;;;;;;;;6227230;28;20838;-51
2022/08/16 22:09:38;;;;;;;52.80;28.38;;;;;;;;;;6225361;28;20526;-51
2022/08/16 22:12:38;;;;;;;53.65;28.23;;;;;;;;;;6223514;28;20053;-54
2022/08/16 22:15:39;;;;;;;55.00;29.37;;;;;;;;;;6225560;28;20053;-50
2022/08/16 22:18:39;;;;;;;54.17;28.33;;;;;;;;;;6224077;28;20049;-50
2022/08/16 22:21:40;;;;;;;54.27;29.87;;;;;;;;;;6224729;28;20804;-52
2022/08/16 22:24:40;;;;;;;55.10;29.47;;;;;;;;;;6221069;28;20041;-51
2022/08/16 22:27:42;;;;;;;50.93;27.97;;;;;;;;;;6229308;28;20060;-50
2022/08/16 22:30:45;;;;;;;55.72;28.85;;;;;;;;;;6224664;28;20486;-55
2022/08/16 22:33:46;;;;;;;58.25;29.17;;;;;;;;;;6228956;28;20567;-53
2022/08/16 22:36:46;;;;;;;63.87;28.90;;;;;;;;;;6228880;28;20037;-50
2022/08/16 22:39:47;;;;;;;55.33;28.50;;;;;;;;;;6230562;28;20033;-55
2022/08/16 22:42:51;;;;;;;55.03;28.67;;;;;;;;;;6229084;28;20119;-55
2022/08/16 22:45:52;;;;;;;55.67;27.73;;;;;;;;;;6227720;28;20060;-51
2022/08/16 22:48:53;;;;;;;48.63;27.50;;;;;;;;;;6222503;28;20883;-56
2022/08/16 22:51:55;;;;;;;48.77;27.30;;;;;;;;;;6219231;28;20041;-53
2022/08/16 22:54:55;;;;;;;;;;;;;;;;;;6221258;28;20106;-54
2022/08/16 22:57:57;;;;;;;49.25;27.23;;;;;;;;;;6223873;28;20279;-52
2022/08/16 23:00:57;;;;;;;53.70;27.17;;;;;;;;;;6219064;28;20746;-50
2022/08/16 23:03:58;;;;;;;49.63;27.23;;;;;;;;;;6220480;28;20049;-56
2022/08/16 23:07:00;;;;;;;49.60;28.10;;;;;;;;;;6221818;28;20049;-56
2022/08/16 23:10:01;;;;;;;48.55;27.35;;;;;;;;;;6223129;28;20360;-50
2022/08/16 23:13:04;;;;;;;52.00;26.70;;;;;;;;;;6223593;28;20045;-50
2022/08/16 23:16:06;;;;;;;50.70;27.88;;;;;;;;;;6218849;28;20075;-55
2022/08/16 23:19:09;;;;;;;52.78;28.92;;;;;;;;;;6222533;28;20053;-50
2022/08/16 23:22:10;;;;;;;51.30;28.70;;;;;;;;;;6222398;28;20091;-49
2022/08/16 23:25:12;;;;;;;50.73;28.20;;;;;;;;;;6218548;28;20053;-49
2022/08/16 23:28:13;;;;;;;50.92;27.40;;;;;;;;;;6221061;28;20052;-52
2022/08/16 23:31:15;;;;;;;50.73;27.03;;;;;;;;;;6219225;28;20050;-55